Time;durP1;ratioP1;P1;durP2;ratioP2;P2;SDS_P1;SDS_P2;PMS_P1;PMS_P2;Temp;Humidity;BMP_temperature;BMP_pressure;BME280_temperature;BME280_humidity;BME280_pressure;Samples;Min_cycle;Max_cycle;Signal;HPM_P1;HPM_P2
2022/08/01 00:00:03;;;;;;;5.10;2.60;;;;;;;20.03;59.53;99085.63;104568;1276;22589;-59
2022/08/01 00:02:30;;;;;;;3.90;2.90;;;;;;;20.01;59.76;99085.77;104490;1277;24755;-60
2022/08/01 00:04:58;;;;;;;3.80;2.40;;;;;;;19.98;59.79;99084.63;104374;1277;138177;-59
2022/08/01 00:07:24;;;;;;;9.10;3.10;;;;;;;19.92;59.95;99081.20;104817;1277;23816;-52
2022/08/01 00:09:51;;;;;;;6.10;2.40;;;;;;;19.90;60.22;99083.33;104451;1277;138061;-52
2022/08/01 00:12:18;;;;;;;7.40;3.40;;;;;;;19.87;60.25;99081.78;104486;1278;25254;-51
2022/08/01 00:14:45;;;;;;;6.20;2.50;;;;;;;19.84;60.44;99079.80;104526;1276;24188;-51
2022/08/01 00:17:11;;;;;;;5.20;2.80;;;;;;;19.80;60.64;99081.55;104436;1277;139576;-56
2022/08/01 00:19:38;;;;;;;7.60;2.80;;;;;;;19.77;60.71;99079.58;104478;1277;27661;-51
2022/08/01 00:22:05;;;;;;;6.20;2.70;;;;;;;19.73;60.88;99082.77;103963;1276;615233;-51
2022/08/01 00:26:51;;;;;;;4.70;2.70;;;;;;;19.69;61.18;99081.14;101605;1309;545279;-53
2022/08/01 00:29:18;;;;;;;5.30;3.00;;;;;;;19.64;61.22;99082.99;103327;1287;137539;-53
2022/08/01 00:32:04;;;;;;;3.90;2.70;;;;;;;19.62;61.21;99081.00;103301;1289;22709;-53
2022/08/01 00:34:32;;;;;;;4.50;3.00;;;;;;;19.60;61.27;99082.02;107307;1286;137127;-53
2022/08/01 00:36:59;;;;;;;4.40;2.70;;;;;;;19.58;61.44;99080.13;107960;1285;22452;-53
2022/08/01 00:39:25;;;;;;;6.80;2.90;;;;;;;19.56;61.49;99075.90;107550;1285;220999;-53
2022/08/01 00:41:52;;;;;;;7.80;2.90;;;;;;;19.54;61.74;99075.77;108037;1284;22611;-53
2022/08/01 00:44:26;;;;;;;4.60;2.70;;;;;;;19.53;61.63;99074.60;108144;1282;22498;-53
2022/08/01 00:46:53;;;;;;;3.10;2.80;;;;;;;19.51;61.74;99075.38;108013;1283;137683;-53
2022/08/01 00:49:19;;;;;;;5.80;2.90;;;;;;;19.50;61.82;99071.22;108089;1281;23251;-53
2022/08/01 00:51:46;;;;;;;5.40;2.80;;;;;;;19.50;61.71;99068.78;107665;1285;138265;-53
2022/08/01 00:54:13;;;;;;;4.40;2.80;;;;;;;19.51;61.63;99065.50;108173;1283;22468;-53
2022/08/01 00:56:42;;;;;;;4.60;2.70;;;;;;;19.52;61.51;99064.98;108018;1284;22576;-54
2022/08/01 00:59:09;;;;;;;5.50;2.80;;;;;;;19.53;61.43;99062.11;107812;1285;138577;-54
2022/08/01 01:01:36;;;;;;;7.90;3.50;;;;;;;19.53;61.35;99057.15;107932;1284;22469;-54
2022/08/01 01:04:05;;;;;;;5.80;2.70;;;;;;;19.55;61.43;99059.13;108579;1276;138138;-54
2022/08/01 01:06:34;;;;;;;7.90;3.00;;;;;;;19.55;61.38;99060.30;108689;1276;22569;-54
2022/08/01 01:09:32;;;;;;;9.50;2.70;;;;;;;19.54;61.30;99057.66;108676;1276;22604;-53
2022/08/01 01:12:20;;;;;;;4.50;2.70;;;;;;;19.52;61.34;99058.34;108882;1274;24467;-53
2022/08/01 01:14:59;;;;;;;8.90;3.20;;;;;;;19.51;61.29;99053.83;108823;1275;22586;-54
2022/08/01 01:17:48;;;;;;;5.40;3.10;;;;;;;19.50;61.37;99056.95;108581;1276;137379;-53
2022/08/01 01:20:18;;;;;;;4.80;2.80;;;;;;;19.49;61.62;99056.70;108755;1276;22677;-53
2022/08/01 01:23:06;;;;;;;8.10;3.20;;;;;;;19.47;61.54;99053.63;108763;1273;140282;-53
2022/08/01 01:25:33;;;;;;;6.30;2.90;;;;;;;19.45;61.64;99046.23;108908;1274;22484;-53
2022/08/01 01:28:21;;;;;;;5.90;3.00;;;;;;;19.46;61.68;99048.91;108766;1274;138615;-53
2022/08/01 01:30:50;;;;;;;6.30;3.00;;;;;;;19.45;61.81;99048.89;108940;1274;22415;-53
2022/08/01 01:33:17;;;;;;;6.70;3.20;;;;;;;19.44;61.86;99049.63;108797;1273;23319;-53
2022/08/01 01:35:48;;;;;;;6.40;3.50;;;;;;;19.43;61.87;99049.66;108574;1276;139437;-53
2022/08/01 01:38:21;;;;;;;8.00;2.70;;;;;;;19.41;62.08;99049.02;108868;1274;22815;-53
2022/08/01 01:40:48;;;;;;;8.10;2.80;;;;;;;19.42;62.07;99049.86;105786;1273;138670;-52
2022/08/01 01:43:15;;;;;;;5.00;2.90;;;;;;;19.41;62.00;99051.48;104645;1276;23043;-52
2022/08/01 01:45:42;;;;;;;10.30;2.80;;;;;;;19.40;62.12;99052.79;104639;1275;138915;-52
2022/08/01 01:48:10;;;;;;;7.00;2.90;;;;;;;19.39;62.25;99053.05;104649;1276;25393;-52
2022/08/01 01:50:37;;;;;;;6.00;3.10;;;;;;;19.38;62.18;99063.64;104411;1277;23364;-52
2022/08/01 01:53:04;;;;;;;7.10;3.40;;;;;;;19.36;62.34;99061.20;104262;1276;138177;-52
2022/08/01 01:55:30;;;;;;;5.50;2.70;;;;;;;19.35;62.24;99063.34;104487;1273;22626;-52
2022/08/01 01:57:57;;;;;;;4.70;2.80;;;;;;;19.34;62.46;99063.92;104614;1276;140295;-52
2022/08/01 02:00:24;;;;;;;5.00;3.40;;;;;;;19.33;62.48;99067.30;104534;1276;22712;-52
2022/08/01 02:02:52;;;;;;;4.30;2.90;;;;;;;19.31;62.46;99066.04;104722;1275;22706;-52
2022/08/01 02:05:19;;;;;;;6.10;3.00;;;;;;;19.31;62.54;99068.30;108564;1277;139170;-52
2022/08/01 02:07:47;;;;;;;7.60;2.80;;;;;;;19.29;62.70;99066.65;108871;1274;22586;-53
2022/08/01 02:10:15;;;;;;;5.60;3.10;;;;;;;19.27;62.81;99065.94;108559;1273;138714;-53
2022/08/01 02:12:42;;;;;;;5.80;2.80;;;;;;;19.25;62.98;99065.28;108885;1273;22377;-52
2022/08/01 02:15:10;;;;;;;8.90;3.30;;;;;;;19.24;63.04;99063.65;108965;1273;22445;-51
2022/08/01 02:17:37;;;;;;;6.70;3.00;;;;;;;19.23;63.18;99061.56;108970;1273;139444;-53
2022/08/01 02:20:05;;;;;;;6.30;2.90;;;;;;;19.23;63.11;99062.88;108767;1274;24355;-53
2022/08/01 02:23:01;;;;;;;8.80;3.40;;;;;;;19.22;63.23;99063.16;108637;1273;138666;-55
2022/08/01 02:25:41;;;;;;;7.10;3.30;;;;;;;19.20;63.42;99064.10;108890;1274;22465;-55
2022/08/01 02:28:32;;;;;;;7.20;3.80;;;;;;;19.18;63.56;99060.77;108924;1273;138550;-54
2022/08/01 02:31:05;;;;;;;7.30;3.00;;;;;;;19.12;63.56;99054.52;108769;1273;22457;-54
2022/08/01 02:33:36;;;;;;;7.80;2.80;;;;;;;19.12;63.71;99057.65;108600;1276;138861;-55
2022/08/01 02:36:03;;;;;;;8.70;3.70;;;;;;;19.08;63.78;99052.52;108774;1274;22484;-54
2022/08/01 02:38:50;;;;;;;9.10;3.80;;;;;;;19.05;63.82;99050.34;108620;1276;23039;-54
2022/08/01 02:41:19;;;;;;;9.70;2.90;;;;;;;19.04;63.93;99052.73;108778;1274;138319;-54
2022/08/01 02:43:49;;;;;;;9.70;3.60;;;;;;;19.02;63.98;99052.05;108761;1274;22449;-54
2022/08/01 02:46:35;;;;;;;3.40;2.40;;;;;;;19.01;63.98;99051.33;108742;1274;138858;-54
2022/08/01 02:49:03;;;;;;;7.10;3.00;;;;;;;18.99;63.95;99047.02;108691;1276;23345;-54
2022/08/01 02:51:30;;;;;;;4.60;3.10;;;;;;;18.99;63.88;99046.10;108651;1274;139311;-54
2022/08/01 02:53:57;;;;;;;8.20;3.00;;;;;;;18.97;63.88;99043.55;108737;1274;22436;-54
2022/08/01 02:56:34;;;;;;;8.40;3.10;;;;;;;18.96;63.91;99043.56;108833;1274;22448;-54
2022/08/01 02:59:09;;;;;;;6.40;3.00;;;;;;;18.98;63.88;99043.69;108754;1273;138007;-54
2022/08/01 03:01:39;;;;;;;7.10;2.60;;;;;;;18.96;63.78;99043.23;108630;1276;22650;-54
2022/08/01 03:04:07;;;;;;;5.50;2.90;;;;;;;18.98;63.72;99047.95;108900;1273;138295;-54
2022/08/01 03:06:34;;;;;;;9.10;3.30;;;;;;;18.98;63.51;99046.70;108661;1275;22570;-54
2022/08/01 03:09:02;;;;;;;4.30;2.80;;;;;;;18.99;63.54;99047.20;108800;1274;22426;-54
2022/08/01 03:11:29;;;;;;;6.10;3.50;;;;;;;18.99;63.48;99049.11;108739;1273;138710;-54
2022/08/01 03:13:56;;;;;;;7.50;2.90;;;;;;;19.00;63.54;99049.87;108795;1276;23186;-54
2022/08/01 03:16:23;;;;;;;6.10;3.00;;;;;;;19.00;63.35;99051.39;108840;1274;138616;-57
2022/08/01 03:18:52;;;;;;;3.80;2.50;;;;;;;19.00;63.11;99053.60;108737;1274;22464;-59
2022/08/01 03:21:20;;;;;;;4.90;2.60;;;;;;;19.01;62.71;99053.86;108917;1274;22473;-57
2022/08/01 03:23:47;;;;;;;4.20;2.80;;;;;;;19.01;62.38;99055.29;108756;1274;141897;-57
2022/08/01 03:26:20;;;;;;;6.00;2.60;;;;;;;19.04;62.13;99062.27;108818;1273;22476;-56
2022/08/01 03:28:47;;;;;;;5.20;2.90;;;;;;;19.06;61.86;99060.30;108810;1275;138229;-56
2022/08/01 03:31:13;;;;;;;5.40;2.60;;;;;;;19.08;61.68;99059.80;108751;1276;22578;-57
2022/08/01 03:33:40;;;;;;;6.70;2.70;;;;;;;19.11;61.58;99057.79;108782;1274;139172;-57
2022/08/01 03:36:09;;;;;;;5.20;2.80;;;;;;;19.11;61.34;99053.37;108681;1276;22600;-57
2022/08/01 03:38:37;;;;;;;4.60;2.60;;;;;;;19.14;61.15;99054.77;108864;1275;22554;-57
2022/08/01 03:41:11;;;;;;;4.70;2.40;;;;;;;19.15;60.91;99056.55;108534;1278;138771;-57
2022/08/01 03:43:41;;;;;;;5.60;2.40;;;;;;;19.14;60.84;99054.48;108960;1273;22493;-57
2022/08/01 03:46:10;;;;;;;7.40;3.10;;;;;;;19.15;60.94;99053.23;108802;1274;139808;-58
2022/08/01 03:48:39;;;;;;;5.70;2.70;;;;;;;19.15;60.81;99050.25;108900;1277;22477;-57
2022/08/01 03:51:06;;;;;;;3.00;2.40;;;;;;;19.15;60.61;99053.23;108912;1274;22428;-58
2022/08/01 03:53:33;;;;;;;6.30;2.80;;;;;;;19.16;60.43;99051.68;108784;1274;138638;-57
2022/08/01 03:56:00;;;;;;;7.30;2.90;;;;;;;19.15;60.37;99054.48;108853;1274;22433;-56
2022/08/01 03:58:30;;;;;;;3.40;2.50;;;;;;;19.15;60.40;99057.23;108851;1273;137965;-56
2022/08/01 04:00:57;;;;;;;4.70;2.70;;;;;;;19.15;60.41;99053.38;108870;1276;22486;-56
2022/08/01 04:03:24;;;;;;;8.90;2.80;;;;;;;19.15;60.16;99051.64;109036;1273;23667;-55
2022/08/01 04:05:51;;;;;;;3.00;2.70;;;;;;;19.16;59.91;99049.80;108897;1273;138062;-54
2022/08/01 04:08:18;;;;;;;5.80;2.80;;;;;;;19.17;60.13;99050.26;108883;1274;22483;-54
2022/08/01 04:10:45;;;;;;;4.80;2.50;;;;;;;19.19;60.06;99046.77;108750;1274;139294;-55
2022/08/01 04:13:16;;;;;;;6.90;2.40;;;;;;;19.21;60.03;99048.34;108900;1274;23378;-54
2022/08/01 04:15:42;;;;;;;6.50;2.40;;;;;;;19.23;60.01;99050.48;108969;1273;137263;-54
2022/08/01 04:18:09;;;;;;;7.60;3.20;;;;;;;19.25;59.71;99049.91;108916;1274;22622;-54
2022/08/01 04:20:36;;;;;;;8.70;4.50;;;;;;;19.29;59.68;99047.38;108876;1274;22479;-55
2022/08/01 04:23:03;;;;;;;13.20;6.30;;;;;;;19.33;59.48;99051.98;108524;1278;139035;-54
2022/08/01 04:25:34;;;;;;;16.40;6.40;;;;;;;19.37;59.23;99049.56;108663;1276;22498;-55
2022/08/01 04:28:03;;;;;;;14.00;5.30;;;;;;;19.42;59.46;99047.26;108416;1278;138593;-57
2022/08/01 04:30:31;;;;;;;11.30;4.20;;;;;;;19.50;59.09;99047.61;108671;1277;22536;-57
2022/08/01 04:32:59;;;;;;;7.10;3.30;;;;;;;19.56;58.86;99043.71;108592;1276;22485;-57
2022/08/01 04:35:26;;;;;;;4.00;3.10;;;;;;;19.66;58.58;99044.36;108555;1278;139031;-57
2022/08/01 04:38:17;;;;;;;7.20;3.40;;;;;;;19.73;58.17;99042.41;108682;1276;22439;-58
2022/08/01 04:40:45;;;;;;;9.50;3.50;;;;;;;19.82;58.23;99044.52;108507;1276;138797;-57
2022/08/01 04:43:12;;;;;;;4.30;3.20;;;;;;;19.89;57.73;99042.66;108652;1277;22452;-58
2022/08/01 04:45:40;;;;;;;9.00;2.90;;;;;;;19.95;57.33;99039.38;108465;1277;138424;-57
2022/08/01 04:48:08;;;;;;;7.00;2.60;;;;;;;20.00;56.87;99038.85;108442;1278;22498;-58
2022/08/01 04:50:36;;;;;;;5.90;3.00;;;;;;;20.08;56.86;99036.43;108799;1276;22464;-57
2022/08/01 04:53:03;;;;;;;4.90;3.00;;;;;;;20.15;56.59;99034.91;108562;1276;139933;-57
2022/08/01 04:55:31;;;;;;;7.00;2.80;;;;;;;20.24;56.03;99028.55;108089;1278;22612;-57
2022/08/01 04:57:58;;;;;;;7.40;2.50;;;;;;;20.34;56.13;99032.27;104445;1277;138161;-57
2022/08/01 05:00:25;;;;;;;3.10;2.10;;;;;;;20.44;55.48;99028.83;104424;1278;24552;-57
2022/08/01 05:02:52;;;;;;;5.10;2.50;;;;;;;20.53;54.96;99027.81;104406;1279;22592;-57
2022/08/01 05:05:20;;;;;;;8.00;2.60;;;;;;;20.60;54.55;99026.84;104334;1279;137955;-57
2022/08/01 05:07:47;;;;;;;4.90;2.30;;;;;;;20.65;54.32;99029.48;104457;1277;22588;-56
2022/08/01 05:10:14;;;;;;;5.60;2.70;;;;;;;20.68;54.24;99031.81;104374;1278;138568;-56
2022/08/01 05:12:41;;;;;;;5.20;2.50;;;;;;;20.69;53.77;99027.25;104333;1278;22729;-56
2022/08/01 05:15:08;;;;;;;6.20;2.80;;;;;;;20.71;53.60;99027.66;104293;1279;22566;-56
2022/08/01 05:17:42;;;;;;;15.50;2.80;;;;;;;20.76;53.59;99029.23;108501;1277;138324;-57
2022/08/01 05:20:10;;;;;;;8.70;2.60;;;;;;;20.82;53.33;99030.47;108692;1277;22403;-56
2022/08/01 05:22:37;;;;;;;7.90;2.60;;;;;;;20.91;53.24;99026.59;108611;1276;138028;-56
2022/08/01 05:25:04;;;;;;;4.70;2.60;;;;;;;21.02;53.08;99030.88;108717;1274;22485;-57
2022/08/01 05:27:38;;;;;;;5.50;2.50;;;;;;;21.11;52.59;99029.98;108802;1273;137727;-57
2022/08/01 05:30:08;;;;;;;9.10;2.50;;;;;;;21.21;52.43;99032.71;108819;1274;22481;-57
2022/08/01 05:32:35;;;;;;;3.70;2.30;;;;;;;21.34;52.70;99033.83;108969;1273;22540;-57
2022/08/01 05:35:02;;;;;;;6.20;2.60;;;;;;;21.51;52.85;99038.19;108915;1273;138606;-56
2022/08/01 05:37:29;;;;;;;8.00;2.40;;;;;;;21.72;52.28;99034.17;108914;1273;24752;-57
2022/08/01 05:39:56;;;;;;;10.10;2.80;;;;;;;21.91;51.68;99036.47;108923;1273;138187;-57
2022/08/01 05:42:22;;;;;;;4.50;2.60;;;;;;;22.09;51.21;99035.75;108853;1274;22580;-57
2022/08/01 05:44:50;;;;;;;3.50;2.20;;;;;;;22.25;50.67;99035.16;108874;1274;22404;-57
2022/08/01 05:47:17;;;;;;;10.50;2.70;;;;;;;22.37;50.49;99028.75;108645;1277;137342;-57
2022/08/01 05:49:45;;;;;;;7.40;2.40;;;;;;;22.55;50.67;99031.83;108768;1274;22955;-57
2022/08/01 05:52:11;;;;;;;4.60;2.30;;;;;;;22.75;50.05;99035.41;108658;1274;138803;-57
2022/08/01 05:54:38;;;;;;;6.00;2.60;;;;;;;22.92;49.49;99039.02;108811;1274;22630;-57
2022/08/01 05:57:06;;;;;;;11.00;2.30;;;;;;;23.04;48.99;99033.20;105509;1275;24428;-55
2022/08/01 05:59:33;;;;;;;11.20;3.20;;;;;;;23.07;48.52;99038.39;104498;1274;137932;-56
2022/08/01 06:02:00;;;;;;;6.30;2.60;;;;;;;23.05;48.79;99038.16;104387;1278;22568;-57
2022/08/01 06:04:27;;;;;;;5.60;2.30;;;;;;;23.05;48.85;99042.93;108648;1274;138296;-57
2022/08/01 06:06:54;;;;;;;7.50;2.90;;;;;;;23.08;49.11;99040.15;108905;1274;22480;-57
2022/08/01 06:09:21;;;;;;;5.40;2.50;;;;;;;23.10;49.10;99038.29;108738;1277;22453;-57
2022/08/01 06:11:48;;;;;;;16.70;3.50;;;;;;;23.07;48.99;99031.48;108727;1273;137359;-57
2022/08/01 06:14:15;;;;;;;6.90;2.60;;;;;;;23.02;48.99;99032.27;108835;1274;23204;-57
2022/08/01 06:16:41;;;;;;;8.60;2.30;;;;;;;22.94;49.44;99029.80;108550;1277;137358;-57
2022/08/01 06:19:08;;;;;;;7.70;3.20;;;;;;;22.87;49.57;99023.41;108840;1274;23198;-57
2022/08/01 06:21:35;;;;;;;7.20;2.50;;;;;;;22.82;49.68;99021.27;108784;1274;139262;-57
2022/08/01 06:24:02;;;;;;;13.00;2.90;;;;;;;22.76;50.05;99019.84;108861;1274;23285;-57
2022/08/01 06:26:29;;;;;;;6.10;2.50;;;;;;;22.75;49.94;99018.83;108861;1274;22496;-57
2022/08/01 06:28:55;;;;;;;2.60;2.20;;;;;;;22.71;49.81;99017.80;108749;1274;137644;-57
2022/08/01 06:31:22;;;;;;;11.30;2.60;;;;;;;22.66;49.98;99019.48;108800;1274;22450;-57
2022/08/01 06:33:49;;;;;;;6.50;2.20;;;;;;;22.62;50.11;99012.64;108739;1274;137708;-57
2022/08/01 06:36:16;;;;;;;6.10;2.40;;;;;;;22.61;50.19;99010.21;107010;1274;22606;-56
2022/08/01 06:38:43;;;;;;;8.40;2.40;;;;;;;22.60;50.45;99006.37;104708;1275;22562;-57
2022/08/01 06:41:09;;;;;;;10.20;2.90;;;;;;;22.60;50.38;99001.37;104568;1274;137267;-56
2022/08/01 06:43:36;;;;;;;6.10;2.20;;;;;;;22.60;50.48;98998.59;104753;1274;22604;-56
2022/08/01 06:46:03;;;;;;;18.80;4.40;;;;;;;22.61;50.38;99000.05;104643;1274;138129;-57
2022/08/01 06:48:30;;;;;;;6.30;2.60;;;;;;;22.60;50.47;99001.86;104548;1275;24438;-56
2022/08/01 06:51:09;;;;;;;8.70;2.40;;;;;;;22.59;50.64;98997.46;104716;1275;24331;-57
2022/08/01 06:53:36;;;;;;;6.90;2.70;;;;;;;22.60;50.71;98995.98;104368;1278;137522;-57
2022/08/01 06:56:04;;;;;;;4.80;2.70;;;;;;;22.60;51.02;98992.55;104722;1275;25355;-57
2022/08/01 06:58:30;;;;;;;8.70;3.60;;;;;;;22.61;51.00;98994.11;104409;1275;137455;-57
2022/08/01 07:00:58;;;;;;;4.40;2.70;;;;;;;22.60;51.19;98998.13;104668;1275;22565;-56
2022/08/01 07:03:25;;;;;;;3.20;2.70;;;;;;;22.61;51.26;98999.59;104557;1277;22656;-56
2022/08/01 07:06:10;;;;;;;7.50;2.80;;;;;;;22.65;51.61;99003.91;104927;1274;27922;-56
2022/08/01 07:08:37;;;;;;;4.60;2.90;;;;;;;22.71;51.99;98996.55;104819;1274;22744;-56
2022/08/01 07:11:06;;;;;;;5.20;2.40;;;;;;;22.79;51.40;98991.27;108747;1274;137621;-57
2022/08/01 07:13:33;;;;;;;6.00;2.60;;;;;;;22.84;51.28;98992.35;108966;1274;23730;-56
2022/08/01 07:16:09;;;;;;;4.40;2.70;;;;;;;22.85;51.45;98993.04;108759;1276;137630;-56
2022/08/01 07:18:35;;;;;;;8.80;3.00;;;;;;;22.87;51.47;98992.39;108862;1274;22571;-57
2022/08/01 07:21:02;;;;;;;5.90;2.60;;;;;;;22.90;51.47;98989.48;108764;1274;22463;-57
2022/08/01 07:23:30;;;;;;;6.00;2.80;;;;;;;22.97;51.35;98990.58;108774;1274;137566;-57
2022/08/01 07:26:03;;;;;;;10.30;3.30;;;;;;;23.04;51.40;98989.44;108689;1275;23035;-57
2022/08/01 07:28:30;;;;;;;4.20;2.60;;;;;;;23.10;51.25;98986.20;108957;1274;137867;-57
2022/08/01 07:30:57;;;;;;;4.00;2.50;;;;;;;23.17;51.42;98981.73;108940;1274;22481;-57
2022/08/01 07:33:24;;;;;;;6.50;2.80;;;;;;;23.25;51.25;98982.41;108879;1276;22482;-57
2022/08/01 07:35:50;;;;;;;4.60;2.40;;;;;;;23.35;50.25;98984.69;108823;1275;138481;-56
2022/08/01 07:38:17;;;;;;;5.00;3.50;;;;;;;23.41;50.13;98984.27;108918;1274;22488;-57
2022/08/01 07:40:44;;;;;;;4.00;3.20;;;;;;;23.48;50.02;98983.21;108831;1274;138035;-57
2022/08/01 07:43:11;;;;;;;4.40;2.90;;;;;;;23.54;50.17;98985.52;108971;1274;22439;-58
2022/08/01 07:45:38;;;;;;;11.20;3.10;;;;;;;23.59;49.63;98978.20;108810;1274;139218;-57
2022/08/01 07:48:12;;;;;;;7.40;3.00;;;;;;;23.69;49.69;98982.90;108869;1274;23249;-57
2022/08/01 07:50:38;;;;;;;6.50;2.40;;;;;;;23.76;49.23;98979.50;108808;1274;22585;-57
2022/08/01 07:53:05;;;;;;;6.20;2.60;;;;;;;23.80;49.61;98979.77;108847;1274;138424;-57
2022/08/01 07:55:32;;;;;;;6.80;2.30;;;;;;;23.84;49.03;98983.11;108862;1275;23594;-57
2022/08/01 07:57:59;;;;;;;4.40;2.40;;;;;;;23.87;48.89;98980.42;108794;1274;139123;-57
2022/08/01 08:00:27;;;;;;;11.20;2.50;;;;;;;23.90;49.45;98978.52;108925;1274;23214;-57
2022/08/01 08:02:54;;;;;;;5.40;2.80;;;;;;;23.95;49.07;98980.46;108929;1274;22564;-57
2022/08/01 08:05:21;;;;;;;7.70;2.60;;;;;;;23.98;49.04;98979.05;108727;1274;138328;-57
2022/08/01 08:08:08;;;;;;;4.20;2.80;;;;;;;24.04;49.71;98979.02;108869;1275;24189;-57
2022/08/01 08:10:35;;;;;;;6.30;2.60;;;;;;;24.09;49.46;98982.98;108952;1273;138405;-57
2022/08/01 08:13:01;;;;;;;4.60;2.60;;;;;;;24.15;49.00;98983.17;108859;1274;22554;-57
2022/08/01 08:15:29;;;;;;;5.00;2.80;;;;;;;24.17;48.78;98984.18;108762;1274;138075;-57
2022/08/01 08:17:55;;;;;;;4.60;2.40;;;;;;;24.19;49.11;98981.45;108897;1274;23382;-57
2022/08/01 08:20:24;;;;;;;11.40;2.90;;;;;;;24.19;49.58;98982.73;109000;1273;22488;-57
2022/08/01 08:22:51;;;;;;;5.00;2.40;;;;;;;24.22;49.53;98980.27;108790;1274;139688;-57
2022/08/01 08:25:21;;;;;;;8.80;2.40;;;;;;;24.25;49.13;98976.05;108697;1274;22871;-58
2022/08/01 08:27:52;;;;;;;5.60;2.50;;;;;;;24.27;49.52;98975.16;108646;1276;138236;-58
2022/08/01 08:30:19;;;;;;;6.60;2.80;;;;;;;24.30;50.03;98966.30;108943;1274;22493;-57
2022/08/01 08:32:47;;;;;;;5.10;2.80;;;;;;;24.34;49.53;98961.95;108928;1274;22465;-57
2022/08/01 08:35:14;;;;;;;7.30;2.70;;;;;;;24.37;49.84;98961.23;108751;1276;137749;-57
2022/08/01 08:37:48;;;;;;;9.00;2.80;;;;;;;24.42;49.82;98964.17;108779;1274;22381;-57
2022/08/01 08:40:21;;;;;;;6.80;3.60;;;;;;;24.46;49.37;98959.35;108782;1274;137466;-58
2022/08/01 08:42:48;;;;;;;5.00;2.80;;;;;;;24.53;49.50;98960.85;108677;1274;23378;-58
2022/08/01 08:45:15;;;;;;;3.90;3.10;;;;;;;24.58;49.20;98957.54;108921;1273;22462;-57
2022/08/01 08:47:42;;;;;;;7.80;3.80;;;;;;;24.61;48.87;98957.23;108789;1273;139088;-57
2022/08/01 08:50:08;;;;;;;4.00;3.20;;;;;;;24.65;48.88;98960.18;108848;1274;22384;-58
2022/08/01 08:52:35;;;;;;;6.20;3.40;;;;;;;24.70;48.94;98962.48;108671;1276;138008;-57
2022/08/01 08:55:02;;;;;;;10.30;3.40;;;;;;;24.74;48.89;98966.16;108924;1273;23171;-57
2022/08/01 08:57:29;;;;;;;6.90;3.30;;;;;;;24.78;48.88;98966.17;108707;1275;137808;-58
2022/08/01 08:59:56;;;;;;;10.30;3.50;;;;;;;24.81;49.16;98964.66;108930;1274;23274;-57
2022/08/01 09:02:23;;;;;;;5.00;3.70;;;;;;;24.86;48.94;98964.91;108870;1274;22480;-57
2022/08/01 09:04:50;;;;;;;5.20;3.30;;;;;;;24.90;49.22;98960.61;108943;1273;138608;-57
2022/08/01 09:07:17;;;;;;;5.20;3.20;;;;;;;24.98;49.51;98964.47;108818;1274;22578;-57
2022/08/01 09:09:44;;;;;;;8.70;3.70;;;;;;;25.04;48.75;98965.95;108930;1273;138593;-57
2022/08/01 09:12:16;;;;;;;5.60;3.60;;;;;;;25.07;48.51;98963.20;108888;1274;22445;-57
2022/08/01 09:14:47;;;;;;;9.60;3.70;;;;;;;25.08;48.71;98965.16;108898;1274;22572;-57
2022/08/01 09:17:14;;;;;;;7.20;3.20;;;;;;;25.10;49.01;98968.85;108777;1274;137401;-58
2022/08/01 09:19:41;;;;;;;3.80;3.30;;;;;;;25.15;49.10;98973.02;108899;1274;22696;-58
2022/08/01 09:22:13;;;;;;;6.20;3.30;;;;;;;25.17;48.97;98971.15;108899;1274;137509;-59
2022/08/01 09:24:40;;;;;;;9.60;3.50;;;;;;;25.20;49.25;98974.25;108810;1276;22515;-56
2022/08/01 09:27:17;;;;;;;9.10;3.90;;;;;;;25.24;49.28;98974.64;108966;1273;22420;-55
2022/08/01 09:29:48;;;;;;;9.20;3.20;;;;;;;25.28;49.06;98975.48;108787;1274;137872;-56
2022/08/01 09:32:28;;;;;;;6.30;3.30;;;;;;;25.31;49.01;98978.10;108879;1274;23493;-56
2022/08/01 09:35:24;;;;;;;23.20;7.10;;;;;;;25.33;49.32;98976.56;108839;1273;138527;-56
2022/08/01 09:38:17;;;;;;;6.10;4.20;;;;;;;25.37;50.25;98973.45;108919;1273;22443;-56
2022/08/01 09:40:46;;;;;;;6.40;4.00;;;;;;;25.41;50.38;98971.75;108801;1274;138250;-56
2022/08/01 09:43:15;;;;;;;5.20;3.80;;;;;;;25.45;49.63;98970.09;108731;1276;22433;-57
2022/08/01 09:45:41;;;;;;;7.70;3.30;;;;;;;25.49;49.27;98971.44;108797;1274;138218;-56
2022/08/01 09:48:15;;;;;;;7.60;4.00;;;;;;;25.49;49.03;98967.06;108853;1274;22510;-56
2022/08/01 09:50:44;;;;;;;8.60;3.60;;;;;;;25.51;49.45;98973.55;108973;1273;22475;-56
2022/08/01 09:53:12;;;;;;;8.80;3.80;;;;;;;25.54;49.47;98973.59;108776;1273;138458;-56
2022/08/01 09:56:08;;;;;;;5.30;3.50;;;;;;;25.54;49.33;98971.20;108944;1274;23486;-56
2022/08/01 09:58:58;;;;;;;8.70;4.00;;;;;;;25.54;49.73;98970.23;108679;1276;138271;-56
2022/08/01 10:01:48;;;;;;;14.20;4.90;;;;;;;25.57;49.84;98975.40;108878;1274;22432;-56
2022/08/01 10:04:20;;;;;;;8.10;4.10;;;;;;;25.59;49.27;98979.60;108802;1274;137363;-58
2022/08/01 10:06:52;;;;;;;8.30;3.70;;;;;;;25.61;49.98;98973.04;108869;1274;22498;-58
2022/08/01 10:09:30;;;;;;;6.60;3.80;;;;;;;25.68;49.61;98970.45;109009;1273;22454;-57
2022/08/01 10:12:06;;;;;;;6.20;3.80;;;;;;;25.71;49.51;98965.64;108950;1274;23527;-57
2022/08/01 10:14:34;;;;;;;18.40;4.40;;;;;;;25.76;50.02;98962.39;108849;1274;22492;-57
2022/08/01 10:17:01;;;;;;;5.30;3.80;;;;;;;25.85;50.08;98959.09;108486;1274;137694;-57
2022/08/01 10:19:32;;;;;;;14.50;4.20;;;;;;;25.95;49.83;98958.32;108795;1274;22706;-57
2022/08/01 10:21:59;;;;;;;16.00;4.70;;;;;;;26.03;49.52;98957.25;108763;1274;138557;-58
2022/08/01 10:24:28;;;;;;;8.90;4.00;;;;;;;26.05;49.63;98960.64;108825;1274;22494;-58
2022/08/01 10:26:59;;;;;;;9.70;4.30;;;;;;;26.07;49.87;98962.98;109081;1273;22490;-57
2022/08/01 10:29:33;;;;;;;;;;;;;;;26.11;49.79;98957.38;108635;1276;140495;-56
2022/08/01 10:32:20;;;;;;;5.10;3.70;;;;;;;26.15;49.97;98957.27;108843;1274;24347;-57
2022/08/01 10:34:49;;;;;;;13.70;4.50;;;;;;;26.19;49.45;98955.98;108741;1274;137590;-57
2022/08/01 10:37:17;;;;;;;6.40;3.90;;;;;;;26.22;49.49;98956.20;108837;1274;22454;-57
2022/08/01 10:39:43;;;;;;;8.20;4.60;;;;;;;26.24;49.69;98952.32;108938;1273;137516;-57
2022/08/01 10:42:12;;;;;;;9.70;4.20;;;;;;;26.28;49.77;98950.30;108853;1274;23432;-58
2022/08/01 10:44:41;;;;;;;11.90;4.20;;;;;;;26.36;49.47;98950.37;108948;1274;22457;-57
2022/08/01 10:47:23;;;;;;;7.50;4.30;;;;;;;26.43;49.62;98943.34;108788;1274;138129;-58
2022/08/01 10:50:26;;;;;;;8.50;4.40;;;;;;;26.50;49.39;98941.94;108827;1275;23627;-58
2022/08/01 10:53:06;;;;;;;9.90;7.00;;;;;;;26.56;49.15;98937.14;108752;1274;137406;-58
2022/08/01 10:55:52;;;;;;;5.40;4.20;;;;;;;26.63;49.61;98942.67;108911;1274;22479;-57
2022/08/01 10:58:32;;;;;;;8.10;4.10;;;;;;;26.70;49.15;98939.09;108796;1274;139442;-57
2022/08/01 11:01:14;;;;;;;7.10;4.10;;;;;;;26.76;49.05;98937.73;108922;1273;22851;-57
2022/08/01 11:03:42;;;;;;;;;;;;;;;26.78;48.64;98934.40;108798;1274;137832;-56
2022/08/01 11:07:06;;;;;;;6.90;4.00;;;;;;;26.78;49.25;98928.73;108831;1274;22441;-56
2022/08/01 11:09:47;;;;;;;7.90;4.40;;;;;;;26.84;48.91;98930.31;108742;1274;139006;-56
2022/08/01 11:12:18;;;;;;;9.30;3.70;;;;;;;26.89;49.16;98928.21;108910;1273;22413;-56
2022/08/01 11:15:00;;;;;;;5.70;3.70;;;;;;;26.94;49.02;98927.59;108746;1274;22577;-56
2022/08/01 11:17:39;;;;;;;12.90;3.70;;;;;;;27.00;49.46;98934.77;108835;1273;139475;-56
2022/08/01 11:20:18;;;;;;;4.30;3.30;;;;;;;27.07;48.78;98941.57;108840;1274;22449;-56
2022/08/01 11:22:57;;;;;;;6.20;3.80;;;;;;;27.10;48.46;98939.30;108824;1273;137440;-56
2022/08/01 11:25:24;;;;;;;9.50;4.30;;;;;;;27.06;48.14;98943.95;108868;1274;23559;-57
2022/08/01 11:28:17;;;;;;;8.20;4.30;;;;;;;26.96;48.65;98944.71;108801;1273;137934;-57
2022/08/01 11:31:07;;;;;;;6.00;3.80;;;;;;;26.88;47.55;98946.27;108886;1273;22692;-59
2022/08/01 11:33:39;;;;;;;6.20;4.10;;;;;;;26.80;47.59;98946.10;108778;1274;137505;-57
2022/08/01 11:36:20;;;;;;;5.90;3.40;;;;;;;26.74;47.50;98946.00;108785;1274;22516;-57
2022/08/01 11:39:06;;;;;;;8.10;3.90;;;;;;;26.68;48.15;98948.02;108898;1274;22470;-57